Terminal Aerodrome Forecast
Issued by NWS

Home | Current Version | Previous Version | Text Only | Print | Product List | Glossary On
Versions: 1 2 3 4 5 6 7 8 9 10 11 12 13 14 15 16 17 18 19 20 21 22 23 24
048
FTUS43 KBIS 280520
TAFMOT
TAF
KMOT 280520Z 2806/2906 07006KT 1/4SM FG OVC001
     FM280800 06007KT 1/2SM FG OVC003
     FM281000 06007KT 1SM BR OVC003
     FM281600 08008KT P6SM OVC005
     FM282000 09008KT P6SM BKN010
     FM290400 14007KT P6SM BKN030=

USA.gov is the U.S. government's official web portal to all federal, state and local government web resources and services.